Terminal Aerodrome Forecast
Issued by NWS Spokane, WA

Home | Current Version | Previous Version | Text Only | Print | Product List | Glossary On
Versions: 1 2 3 4 5 6 7 8 9 10 11 12 13 14 15 16 17 18
000
FTUS46 KOTX 072320
TAFGEG
TAF
KGEG 072320Z 0800/0824 07004KT P6SM SCT035 BKN070
     FM080400 04007KT P6SM SCT250
     FM081800 05009KT P6SM BKN200
     FM082100 05010KT P6SM SCT100 BKN150=

USA.gov is the U.S. government's official web portal to all federal, state and local government web resources and services.